Time;durP1;ratioP1;P1;durP2;ratioP2;P2;SDS_P1;SDS_P2;PMS_P1;PMS_P2;Temp;Humidity;BMP_temperature;BMP_pressure;BME280_temperature;BME280_humidity;BME280_pressure;Samples;Min_cycle;Max_cycle;Signal;HPM_P1;HPM_P2
2021/08/13 00:01:44;;;;;;;26.38;18.25;;;20.00;99.90;;;;;;4132523;28;20169;-84
2021/08/13 00:03:45;;;;;;;32.00;20.50;;;20.00;99.90;;;;;;4148847;28;20672;-83
2021/08/13 00:05:49;;;;;;;28.65;19.85;;;20.20;99.90;;;;;;4148393;28;20246;-83
2021/08/13 00:07:50;;;;;;;29.85;20.50;;;20.10;99.90;;;;;;4150079;28;20529;-83
2021/08/13 00:09:50;;;;;;;31.80;18.70;;;20.20;99.90;;;;;;4150087;28;20169;-83
2021/08/13 00:11:51;;;;;;;26.83;17.95;;;20.20;99.90;;;;;;4149906;28;20179;-83
2021/08/13 00:13:51;;;;;;;26.77;19.08;;;20.20;99.90;;;;;;4164938;28;20691;-83
2021/08/13 00:15:52;;;;;;;27.98;18.65;;;20.30;99.90;;;;;;4148306;28;20251;-83
2021/08/13 00:17:53;;;;;;;31.48;19.48;;;20.40;99.90;;;;;;4149885;28;20224;-83
2021/08/13 00:19:54;;;;;;;31.15;19.02;;;20.40;99.90;;;;;;4149688;28;20181;-83
2021/08/13 00:21:55;;;;;;;39.30;18.88;;;20.40;99.90;;;;;;4149693;28;20541;-83
2021/08/13 00:23:57;;;;;;;27.02;19.73;;;20.30;99.90;;;;;;4149516;28;20169;-83
2021/08/13 00:25:57;;;;;;;32.25;19.45;;;20.20;99.90;;;;;;4132281;28;20205;-82
2021/08/13 00:27:58;;;;;;;29.60;19.17;;;20.00;99.90;;;;;;4148297;28;20169;-83
2021/08/13 00:29:59;;;;;;;29.10;19.42;;;20.00;99.90;;;;;;4132359;28;20653;-83
2021/08/13 00:31:59;;;;;;;27.42;18.80;;;19.80;99.90;;;;;;4147455;28;20212;-83
2021/08/13 00:34:00;;;;;;;27.15;19.77;;;19.70;99.90;;;;;;4148357;28;20276;-83
2021/08/13 00:36:02;;;;;;;28.48;19.55;;;19.60;99.90;;;;;;4132060;28;20214;-83
2021/08/13 00:38:04;;;;;;;28.55;18.42;;;19.70;99.90;;;;;;4164369;28;20172;-83
2021/08/13 00:40:07;;;;;;;31.55;19.00;;;19.80;99.90;;;;;;4148278;28;20605;-83
2021/08/13 00:42:08;;;;;;;27.90;19.23;;;19.80;99.90;;;;;;4148378;28;20208;-84
2021/08/13 00:44:12;;;;;;;32.63;18.60;;;19.90;99.90;;;;;;4148409;28;20189;-83
2021/08/13 00:46:13;;;;;;;29.83;19.90;;;19.90;99.90;;;;;;4148009;28;20307;-83
2021/08/13 00:48:31;;;;;;;32.30;21.10;;;19.90;99.90;;;;;;4164536;28;20196;-83
2021/08/13 00:50:44;;;;;;;31.83;20.33;;;19.90;99.90;;;;;;4148206;28;20255;-83
2021/08/13 00:52:45;;;;;;;28.08;20.85;;;19.80;99.90;;;;;;4149505;28;20260;-84
2021/08/13 00:54:49;;;;;;;29.58;20.23;;;19.70;99.90;;;;;;4132270;28;20212;-83
2021/08/13 00:56:51;;;;;;;29.52;19.75;;;19.60;99.90;;;;;;4148097;28;20189;-84
2021/08/13 00:59:20;;;;;;;29.33;19.38;;;19.60;99.90;;;;;;4164277;28;20168;-84
2021/08/13 01:01:30;;;;;;;28.75;20.05;;;19.60;99.90;;;;;;4148352;28;20564;-83
2021/08/13 01:03:32;;;;;;;36.65;20.35;;;19.70;99.90;;;;;;4147939;28;20514;-84
2021/08/13 01:05:37;;;;;;;28.67;18.77;;;19.80;99.90;;;;;;4148534;28;20219;-84
2021/08/13 01:07:38;;;;;;;29.77;19.60;;;19.80;99.90;;;;;;4131646;28;20173;-84
2021/08/13 01:09:41;;;;;;;26.95;19.63;;;19.80;99.90;;;;;;4147855;28;20648;-83
2021/08/13 01:12:04;;;;;;;29.38;19.75;;;19.90;99.90;;;;;;4147817;28;20239;-84
2021/08/13 01:14:35;;;;;;;30.67;20.58;;;19.80;99.90;;;;;;4147726;28;20268;-84
2021/08/13 01:16:42;;;;;;;32.72;19.88;;;19.70;99.90;;;;;;4131433;28;20205;-83
2021/08/13 01:19:03;;;;;;;29.23;20.30;;;19.70;99.90;;;;;;4147833;28;20168;-83
2021/08/13 01:21:09;;;;;;;32.47;20.55;;;19.60;99.90;;;;;;4146139;28;20169;-84
2021/08/13 01:23:18;;;;;;;29.00;19.27;;;19.60;99.90;;;;;;4147638;28;20271;-83
2021/08/13 01:25:22;;;;;;;30.13;19.70;;;19.70;99.90;;;;;;4147444;28;20228;-84
2021/08/13 01:27:31;;;;;;;34.55;18.98;;;19.60;99.90;;;;;;4147774;28;20208;-84
2021/08/13 01:29:39;;;;;;;27.30;18.58;;;19.70;99.90;;;;;;4164002;28;20659;-83
2021/08/13 01:32:00;;;;;;;30.67;18.42;;;19.70;99.90;;;;;;4147663;28;20176;-83
2021/08/13 01:34:04;;;;;;;28.27;18.83;;;19.80;99.90;;;;;;4131424;28;20181;-83
2021/08/13 01:36:06;;;;;;;31.73;18.75;;;19.70;99.90;;;;;;4131240;28;20363;-83
2021/08/13 01:38:13;;;;;;;30.35;18.08;;;19.70;99.90;;;;;;4147383;28;20169;-83
2021/08/13 01:40:16;;;;;;;31.40;18.77;;;19.70;99.90;;;;;;4147588;28;20555;-83
2021/08/13 01:42:17;;;;;;;28.25;18.35;;;19.60;99.90;;;;;;4164130;28;20184;-83
2021/08/13 01:44:18;;;;;;;29.23;19.10;;;19.70;99.90;;;;;;4147745;28;20181;-83
2021/08/13 01:46:20;;;;;;;26.38;18.73;;;19.70;99.90;;;;;;4163684;28;20307;-83
2021/08/13 01:48:35;;;;;;;30.02;18.95;;;19.60;99.90;;;;;;4132807;28;20185;-83
2021/08/13 01:50:37;;;;;;;29.23;19.17;;;19.50;99.90;;;;;;4147633;28;20219;-84
2021/08/13 01:52:39;;;;;;;32.95;20.00;;;19.50;99.90;;;;;;4147388;28;20176;-83
2021/08/13 01:54:40;;;;;;;34.05;19.98;;;19.40;99.90;;;;;;4131337;28;20205;-83
2021/08/13 01:56:44;;;;;;;31.98;20.58;;;19.30;99.90;;;;;;4131287;28;20197;-83
2021/08/13 01:58:48;;;;;;;29.50;20.35;;;19.40;99.90;;;;;;4147522;28;20675;-83
2021/08/13 02:00:52;;;;;;;31.70;18.63;;;19.30;99.90;;;;;;4147658;28;20177;-84
2021/08/13 02:02:55;;;;;;;30.13;19.15;;;19.30;99.90;;;;;;4131185;28;20177;-84
2021/08/13 02:04:57;;;;;;;26.35;18.42;;;19.30;99.90;;;;;;4147330;28;20161;-83
2021/08/13 02:06:58;;;;;;;29.75;17.52;;;19.30;99.90;;;;;;4147207;28;20200;-83
2021/08/13 02:09:01;;;;;;;29.58;18.38;;;19.40;99.90;;;;;;4147583;28;20168;-83
2021/08/13 02:11:09;;;;;;;26.00;18.02;;;19.50;99.90;;;;;;4162916;28;20183;-83
2021/08/13 02:13:11;;;;;;;26.02;18.67;;;19.50;99.90;;;;;;4146996;28;20661;-83
2021/08/13 02:15:13;;;;;;;28.42;19.67;;;19.60;99.90;;;;;;4163427;28;20672;-84
2021/08/13 02:17:19;;;;;;;28.85;20.10;;;19.50;99.90;;;;;;4147329;28;20234;-84
2021/08/13 02:19:41;;;;;;;31.50;19.35;;;19.50;99.90;;;;;;4131109;28;20590;-83
2021/08/13 02:21:46;;;;;;;26.27;19.20;;;19.50;99.90;;;;;;4131141;28;20180;-83
2021/08/13 02:23:47;;;;;;;25.45;18.13;;;19.40;99.90;;;;;;4147109;28;20183;-83
2021/08/13 02:25:48;;;;;;;38.67;20.23;;;19.30;99.90;;;;;;4163171;28;20201;-83
2021/08/13 02:27:50;;;;;;;32.85;20.33;;;19.30;99.90;;;;;;4147249;28;20715;-83
2021/08/13 02:29:53;;;;;;;27.45;19.02;;;19.30;99.90;;;;;;4131127;28;20725;-84
2021/08/13 02:31:57;;;;;;;26.13;18.30;;;19.30;99.90;;;;;;4147134;28;20211;-84
2021/08/13 02:33:59;;;;;;;28.55;17.98;;;19.30;99.90;;;;;;4147200;28;20169;-84
2021/08/13 02:36:08;;;;;;;29.48;19.30;;;19.40;99.90;;;;;;4130714;28;20240;-84
2021/08/13 02:38:19;;;;;;;27.70;18.67;;;19.40;99.90;;;;;;4147043;28;20236;-83
2021/08/13 02:40:45;;;;;;;27.63;19.40;;;19.40;99.90;;;;;;4131031;28;20178;-84
2021/08/13 02:42:48;;;;;;;26.65;18.27;;;19.40;99.90;;;;;;4130868;28;20228;-84
2021/08/13 02:44:53;;;;;;;26.17;17.90;;;19.30;99.90;;;;;;4146915;28;20165;-83
2021/08/13 02:47:02;;;;;;;28.63;17.55;;;19.30;99.90;;;;;;4163105;28;20219;-83
2021/08/13 02:49:06;;;;;;;27.27;18.17;;;19.30;99.90;;;;;;4147101;28;20180;-83
2021/08/13 02:51:10;;;;;;;26.27;17.77;;;19.20;99.90;;;;;;4147111;28;20183;-83
2021/08/13 02:53:19;;;;;;;29.58;18.35;;;19.20;99.90;;;;;;4147135;28;20168;-83
2021/08/13 02:55:28;;;;;;;33.50;17.80;;;19.20;99.90;;;;;;4164829;28;20687;-83
2021/08/13 02:57:34;;;;;;;23.58;17.10;;;19.10;99.90;;;;;;4149688;28;20200;-83
2021/08/13 02:59:39;;;;;;;24.80;17.27;;;19.00;99.90;;;;;;4151153;28;20164;-83
2021/08/13 03:01:42;;;;;;;26.25;17.13;;;18.90;99.90;;;;;;4149872;28;20592;-83
2021/08/13 03:03:44;;;;;;;26.38;16.90;;;18.80;99.90;;;;;;4151087;28;20252;-83
2021/08/13 03:05:51;;;;;;;31.40;17.75;;;18.70;99.90;;;;;;4149961;28;20192;-83
2021/08/13 03:07:53;;;;;;;25.15;17.52;;;18.70;99.90;;;;;;4149561;28;20235;-83
2021/08/13 03:09:56;;;;;;;28.58;17.58;;;18.70;99.90;;;;;;4133711;28;20692;-91
2021/08/13 03:11:58;;;;;;;27.20;18.02;;;18.60;99.90;;;;;;4149812;28;20629;-83
2021/08/13 03:14:01;;;;;;;27.20;18.73;;;18.60;99.90;;;;;;4149835;28;20165;-84
2021/08/13 03:16:04;;;;;;;29.92;17.83;;;18.70;99.90;;;;;;4149654;28;20232;-82
2021/08/13 03:18:12;;;;;;;30.42;17.48;;;18.70;99.90;;;;;;4149645;28;20175;-83
2021/08/13 03:20:13;;;;;;;29.25;18.02;;;18.70;99.90;;;;;;4133602;28;20269;-83
2021/08/13 03:22:29;;;;;;;25.23;17.70;;;18.80;99.90;;;;;;4149457;28;20549;-83
2021/08/13 03:24:31;;;;;;;23.83;16.50;;;18.80;99.90;;;;;;4133147;28;20170;-93
2021/08/13 03:26:36;;;;;;;24.70;15.73;;;18.80;99.90;;;;;;4165762;28;20191;-83
2021/08/13 03:28:40;;;;;;;21.38;15.02;;;18.70;99.90;;;;;;4149370;28;20184;-83
2021/08/13 03:30:44;;;;;;;20.20;14.30;;;18.70;99.90;;;;;;4149256;28;20173;-83
2021/08/13 03:32:49;;;;;;;24.02;13.70;;;18.70;99.90;;;;;;4149564;28;20224;-83
2021/08/13 03:34:50;;;;;;;21.05;14.73;;;18.70;99.90;;;;;;4149273;28;20660;-83
2021/08/13 03:36:51;;;;;;;17.63;13.55;;;18.70;99.90;;;;;;4149321;28;20225;-83
2021/08/13 03:38:57;;;;;;;20.75;13.43;;;18.60;99.90;;;;;;4149120;28;20177;-83
2021/08/13 03:40:58;;;;;;;21.60;13.52;;;18.60;99.90;;;;;;4133077;28;20315;-83
2021/08/13 03:42:59;;;;;;;22.20;13.45;;;18.50;99.90;;;;;;4133066;28;20178;-83
2021/08/13 03:45:00;;;;;;;20.60;12.88;;;18.50;99.90;;;;;;4150185;28;20256;-83
2021/08/13 03:47:01;;;;;;;21.45;12.70;;;18.60;99.90;;;;;;4132762;28;20276;-83
2021/08/13 03:49:01;;;;;;;16.65;12.90;;;18.60;99.90;;;;;;4165965;28;20180;-83
2021/08/13 03:51:02;;;;;;;17.35;12.88;;;18.50;99.90;;;;;;4132875;28;20531;-91
2021/08/13 03:53:03;;;;;;;20.73;13.27;;;18.40;99.90;;;;;;4149087;28;20169;-83
2021/08/13 03:55:04;;;;;;;21.48;13.35;;;18.40;99.90;;;;;;4148733;28;20210;-83
2021/08/13 03:57:08;;;;;;;19.48;13.30;;;18.40;99.90;;;;;;4133177;28;20204;-83
2021/08/13 03:59:10;;;;;;;18.90;12.43;;;18.40;99.90;;;;;;4148944;28;20260;-83
2021/08/13 04:01:12;;;;;;;17.40;12.45;;;18.40;99.90;;;;;;4165544;28;20663;-83
2021/08/13 04:03:14;;;;;;;21.50;11.23;;;18.30;99.90;;;;;;4132723;28;20181;-83
2021/08/13 04:05:16;;;;;;;16.65;10.85;;;18.30;99.90;;;;;;4132714;28;20180;-83
2021/08/13 04:07:18;;;;;;;17.02;11.20;;;18.30;99.90;;;;;;4148798;28;20637;-83
2021/08/13 04:09:19;;;;;;;16.75;10.18;;;18.30;99.90;;;;;;4148932;28;20219;-83
2021/08/13 04:11:20;;;;;;;15.25;10.90;;;18.20;99.90;;;;;;4149999;28;20255;-83
2021/08/13 04:13:23;;;;;;;16.90;10.38;;;18.20;99.90;;;;;;4133012;28;20675;-83
2021/08/13 04:15:31;;;;;;;16.52;10.07;;;18.20;99.90;;;;;;4133354;28;20246;-83
2021/08/13 04:17:33;;;;;;;13.68;9.77;;;18.20;99.90;;;;;;4132548;28;20645;-84
2021/08/13 04:19:33;;;;;;;15.07;10.38;;;18.20;99.90;;;;;;4149916;28;20169;-83
2021/08/13 04:21:34;;;;;;;13.85;9.60;;;18.20;99.90;;;;;;4132638;28;20511;-83
2021/08/13 04:23:35;;;;;;;14.48;9.95;;;18.10;99.90;;;;;;4165055;28;20192;-83
2021/08/13 04:25:36;;;;;;;14.45;9.95;;;18.20;99.90;;;;;;4148017;28;20189;-83
2021/08/13 04:27:37;;;;;;;18.65;9.43;;;18.20;99.90;;;;;;4148490;28;20189;-82
2021/08/13 04:29:37;;;;;;;13.20;8.80;;;18.20;99.90;;;;;;4148346;28;20165;-83
2021/08/13 04:31:39;;;;;;;11.63;8.02;;;18.20;99.90;;;;;;4132267;28;20174;-83
2021/08/13 04:33:42;;;;;;;14.95;8.10;;;18.20;99.90;;;;;;4132282;28;20178;-83
2021/08/13 04:35:54;;;;;;;11.65;7.68;;;18.20;99.90;;;;;;4133497;28;20304;-83
2021/08/13 04:37:56;;;;;;;12.02;7.25;;;18.30;99.90;;;;;;4132301;28;20173;-83
2021/08/13 04:39:57;;;;;;;12.07;8.10;;;18.30;99.90;;;;;;4148614;28;20268;-83
2021/08/13 04:41:58;;;;;;;12.38;7.63;;;18.40;99.90;;;;;;4132147;28;20228;-83
2021/08/13 04:43:59;;;;;;;11.13;7.60;;;18.50;99.90;;;;;;4164664;28;20581;-83
2021/08/13 04:46:01;;;;;;;11.00;7.75;;;18.60;99.90;;;;;;4148179;28;20204;-83
2021/08/13 04:48:02;;;;;;;11.93;7.97;;;18.70;99.90;;;;;;4148135;28;20169;-83
2021/08/13 04:50:03;;;;;;;17.20;8.48;;;18.60;99.90;;;;;;4148320;28;20219;-83
2021/08/13 04:52:05;;;;;;;11.25;7.35;;;18.60;99.90;;;;;;4148292;28;20173;-83
2021/08/13 04:54:06;;;;;;;11.63;7.03;;;18.60;99.90;;;;;;4132077;28;20185;-83
2021/08/13 04:56:07;;;;;;;12.13;7.72;;;18.50;99.90;;;;;;4147776;28;20217;-83
2021/08/13 04:58:11;;;;;;;10.38;6.78;;;18.70;99.90;;;;;;4148449;28;20161;-83
2021/08/13 05:00:12;;;;;;;11.82;7.03;;;18.60;99.90;;;;;;4148058;28;20615;-83
2021/08/13 05:02:21;;;;;;;10.35;6.32;;;18.60;99.90;;;;;;4131912;28;20636;-83
2021/08/13 05:04:22;;;;;;;13.52;7.40;;;18.60;99.90;;;;;;4131647;28;20179;-83
2021/08/13 05:06:22;;;;;;;11.52;7.80;;;18.60;99.90;;;;;;4147856;28;20200;-83
2021/08/13 05:08:23;;;;;;;11.27;6.93;;;18.60;99.90;;;;;;4131648;28;20261;-83
2021/08/13 05:10:25;;;;;;;16.65;7.07;;;18.50;99.90;;;;;;4164236;28;20176;-83
2021/08/13 05:12:26;;;;;;;11.68;6.82;;;18.60;99.90;;;;;;4148030;28;20208;-83
2021/08/13 05:14:28;;;;;;;12.00;6.90;;;18.60;99.90;;;;;;4147892;28;20541;-83
2021/08/13 05:16:29;;;;;;;10.38;6.53;;;18.60;99.90;;;;;;4147741;28;20201;-83
2021/08/13 05:18:29;;;;;;;12.40;6.38;;;18.60;99.90;;;;;;4131175;28;20204;-83
2021/08/13 05:20:31;;;;;;;9.65;5.85;;;18.60;99.90;;;;;;4147902;28;20264;-83
2021/08/13 05:22:36;;;;;;;8.88;5.80;;;18.60;99.90;;;;;;4131834;28;20177;-83
2021/08/13 05:24:37;;;;;;;10.95;6.35;;;18.60;99.90;;;;;;4147625;28;20187;-83
2021/08/13 05:26:40;;;;;;;10.60;5.55;;;18.60;99.90;;;;;;4147692;28;20184;-83
2021/08/13 05:28:41;;;;;;;8.18;5.68;;;18.70;99.90;;;;;;4147899;28;20227;-83
2021/08/13 05:30:43;;;;;;;11.00;6.05;;;18.70;99.90;;;;;;4131723;28;20186;-83
2021/08/13 05:32:47;;;;;;;11.32;5.85;;;18.80;99.90;;;;;;4147526;28;20188;-83
2021/08/13 05:34:48;;;;;;;11.13;5.97;;;18.80;99.90;;;;;;4147345;28;20704;-83
2021/08/13 05:36:49;;;;;;;10.65;5.55;;;18.80;99.90;;;;;;4147688;28;20204;-83
2021/08/13 05:38:49;;;;;;;8.90;5.55;;;18.80;99.90;;;;;;4131817;28;20631;-87
2021/08/13 05:40:51;;;;;;;11.70;6.80;;;18.80;99.90;;;;;;4148245;28;20176;-88
2021/08/13 05:42:51;;;;;;;8.40;6.00;;;18.80;99.90;;;;;;4148326;28;20181;-88
2021/08/13 05:44:52;;;;;;;12.73;6.50;;;18.80;99.90;;;;;;4148200;28;20192;-87
2021/08/13 05:46:53;;;;;;;9.65;5.90;;;18.80;99.90;;;;;;4131607;28;20205;-88
2021/08/13 05:48:54;;;;;;;10.45;6.65;;;18.90;99.90;;;;;;4148351;28;20185;-88
2021/08/13 05:50:55;;;;;;;9.02;5.22;;;19.00;99.90;;;;;;4132129;28;20173;-87
2021/08/13 05:52:58;;;;;;;9.82;5.93;;;19.20;99.90;;;;;;4164762;28;20176;-87
2021/08/13 05:55:03;;;;;;;11.57;6.78;;;19.20;99.90;;;;;;4148251;28;20217;-87
2021/08/13 05:57:03;;;;;;;12.20;6.40;;;19.20;99.90;;;;;;4148020;28;20180;-87
2021/08/13 05:59:04;;;;;;;10.68;6.20;;;19.30;99.90;;;;;;4131813;28;20669;-87
2021/08/13 06:01:08;;;;;;;8.55;5.75;;;19.40;99.90;;;;;;4132210;28;20186;-91
2021/08/13 06:03:09;;;;;;;8.95;5.22;;;19.40;99.90;;;;;;4131949;28;20204;-87
2021/08/13 06:05:18;;;;;;;10.00;5.90;;;19.30;99.90;;;;;;4163248;28;20192;-87
2021/08/13 06:07:19;;;;;;;8.55;5.68;;;19.30;99.90;;;;;;4147961;28;20224;-88
2021/08/13 06:09:20;;;;;;;8.38;5.03;;;19.30;99.90;;;;;;4147932;28;20172;-87
2021/08/13 06:11:21;;;;;;;9.65;5.43;;;19.40;99.90;;;;;;4131922;28;20177;-88
2021/08/13 06:13:21;;;;;;;9.20;5.25;;;19.30;99.90;;;;;;4148069;28;20228;-87
2021/08/13 06:15:25;;;;;;;9.15;5.32;;;19.40;99.90;;;;;;4147679;28;20223;-87
2021/08/13 06:17:25;;;;;;;9.95;5.45;;;19.50;99.90;;;;;;4164222;28;20192;-87
2021/08/13 06:19:26;;;;;;;7.68;5.30;;;19.40;99.90;;;;;;4131698;28;20247;-87
2021/08/13 06:21:30;;;;;;;7.38;5.05;;;19.50;99.90;;;;;;4147868;28;20271;-86
2021/08/13 06:23:30;;;;;;;7.97;5.32;;;19.60;99.90;;;;;;4147936;28;20173;-87
2021/08/13 06:25:33;;;;;;;8.75;5.53;;;19.70;99.90;;;;;;4147697;28;20228;-87
2021/08/13 06:27:34;;;;;;;9.57;5.13;;;19.90;99.90;;;;;;4147950;28;20173;-87
2021/08/13 06:29:35;;;;;;;7.15;5.32;;;19.90;99.90;;;;;;4148389;28;20540;-87
2021/08/13 06:31:36;;;;;;;12.13;5.70;;;20.00;99.90;;;;;;4135052;28;20193;-91
2021/08/13 06:33:36;;;;;;;11.27;5.95;;;20.00;99.90;;;;;;4134756;28;20231;-87
2021/08/13 06:35:38;;;;;;;10.95;5.82;;;20.20;99.90;;;;;;4151008;28;20213;-87
2021/08/13 06:37:55;;;;;;;8.10;5.95;;;20.30;99.90;;;;;;4150996;28;20172;-90
2021/08/13 06:39:58;;;;;;;20.38;6.05;;;20.30;99.90;;;;;;4151240;28;20532;-87
2021/08/13 06:41:58;;;;;;;12.50;6.55;;;20.20;99.90;;;;;;4134689;28;20264;-91
2021/08/13 06:44:06;;;;;;;12.05;5.78;;;20.40;99.90;;;;;;4151214;28;20269;-87
2021/08/13 06:46:07;;;;;;;11.05;6.65;;;20.30;99.90;;;;;;4134829;28;20252;-90
2021/08/13 06:48:09;;;;;;;13.20;6.70;;;20.50;99.90;;;;;;4150752;28;20181;-88
2021/08/13 06:50:13;;;;;;;8.52;6.28;;;20.40;99.90;;;;;;4150850;28;20191;-87
2021/08/13 06:52:19;;;;;;;10.45;6.68;;;20.40;99.90;;;;;;4135142;28;20173;-91
2021/08/13 06:54:20;;;;;;;11.07;6.93;;;20.40;99.90;;;;;;4150571;28;20217;-91
2021/08/13 06:56:20;;;;;;;10.25;7.47;;;20.50;99.90;;;;;;4150456;28;20219;-87
2021/08/13 06:58:21;;;;;;;9.18;7.15;;;20.50;99.90;;;;;;4150362;28;20251;-87
2021/08/13 07:00:22;;;;;;;13.30;7.85;;;20.60;99.90;;;;;;4134416;28;20170;-87
2021/08/13 07:02:24;;;;;;;15.48;7.90;;;20.70;99.90;;;;;;4134354;28;20264;-87
2021/08/13 07:04:24;;;;;;;16.25;7.60;;;20.60;99.90;;;;;;4134589;28;20177;-86
2021/08/13 07:06:25;;;;;;;12.18;7.28;;;20.40;99.90;;;;;;4134483;28;20193;-87
2021/08/13 07:08:26;;;;;;;11.93;7.50;;;20.60;99.90;;;;;;4166771;28;20252;-87
2021/08/13 07:10:32;;;;;;;10.63;7.57;;;20.60;99.90;;;;;;4151075;28;20177;-87
2021/08/13 07:12:34;;;;;;;12.07;8.07;;;20.60;99.90;;;;;;4134070;28;20169;-87
2021/08/13 07:14:35;;;;;;;13.30;8.13;;;20.60;99.90;;;;;;4150390;28;20260;-87
2021/08/13 07:16:36;;;;;;;9.35;7.53;;;20.70;99.90;;;;;;4134148;28;20227;-87
2021/08/13 07:18:37;;;;;;;12.90;7.55;;;20.90;99.90;;;;;;4166631;28;20176;-87
2021/08/13 07:20:37;;;;;;;9.02;6.53;;;21.90;99.90;;;;;;4150333;28;20185;-88
2021/08/13 07:22:41;;;;;;;8.48;6.55;;;22.90;99.90;;;;;;4134353;28;20598;-87
2021/08/13 07:24:42;;;;;;;8.13;5.70;;;23.40;99.90;;;;;;4150166;28;20180;-87
2021/08/13 07:26:43;;;;;;;12.30;6.43;;;24.30;99.90;;;;;;4134025;28;20200;-87
2021/08/13 07:28:43;;;;;;;9.07;6.70;;;24.00;99.90;;;;;;4150270;28;20176;-87
2021/08/13 07:30:44;;;;;;;8.88;5.68;;;24.50;99.90;;;;;;4134104;28;20715;-91
2021/08/13 07:32:45;;;;;;;8.07;5.68;;;24.90;99.90;;;;;;4150393;28;20183;-87
2021/08/13 07:34:46;;;;;;;9.48;5.53;;;25.70;99.90;;;;;;4133973;28;20554;-88
2021/08/13 07:36:49;;;;;;;11.00;5.88;;;26.10;99.90;;;;;;4150061;28;20219;-88
2021/08/13 07:38:52;;;;;;;11.50;5.72;;;26.60;99.90;;;;;;4134033;28;20252;-93
2021/08/13 07:40:53;;;;;;;7.40;5.40;;;26.50;99.90;;;;;;4133405;28;20257;-87
2021/08/13 07:42:54;;;;;;;9.52;5.32;;;26.40;99.90;;;;;;4149897;28;20177;-88
2021/08/13 07:44:56;;;;;;;9.55;5.35;;;26.20;99.90;;;;;;4133753;28;20170;-88
2021/08/13 07:46:57;;;;;;;7.65;5.03;;;26.40;99.90;;;;;;4149531;28;20219;-87
2021/08/13 07:48:58;;;;;;;10.00;5.00;;;26.70;99.90;;;;;;4149904;28;20177;-88
2021/08/13 07:51:00;;;;;;;7.63;4.10;;;27.70;99.90;;;;;;4133635;28;20250;-88
2021/08/13 07:53:01;;;;;;;6.00;3.80;;;28.30;99.90;;;;;;4166077;28;20176;-91
2021/08/13 07:55:04;;;;;;;7.05;3.72;;;28.50;99.90;;;;;;4149588;28;20239;-87
2021/08/13 07:57:05;;;;;;;6.45;3.88;;;28.10;99.90;;;;;;4149526;28;20201;-88
2021/08/13 07:59:06;;;;;;;5.45;3.72;;;27.60;99.90;;;;;;4149654;28;20172;-92
2021/08/13 08:01:08;;;;;;;7.93;3.80;;;27.30;99.90;;;;;;4133405;28;20173;-87
2021/08/13 08:03:09;;;;;;;5.15;2.97;;;27.00;99.90;;;;;;4149683;28;20663;-90
2021/08/13 08:05:10;;;;;;;4.80;2.92;;;26.60;99.90;;;;;;4165973;28;20258;-87
2021/08/13 08:07:11;;;;;;;4.93;2.92;;;26.30;99.90;;;;;;4149712;28;20173;-88
2021/08/13 08:09:11;;;;;;;4.85;2.90;;;25.90;99.90;;;;;;4150711;28;20177;-87
2021/08/13 08:11:12;;;;;;;4.05;2.83;;;25.90;99.90;;;;;;4149613;28;20173;-87
2021/08/13 08:13:17;;;;;;;4.72;2.63;;;25.80;99.90;;;;;;4149988;28;20184;-90
2021/08/13 08:15:17;;;;;;;8.80;2.80;;;25.60;99.90;;;;;;4149620;28;20223;-90
2021/08/13 08:17:18;;;;;;;6.03;2.40;;;25.20;99.90;;;;;;4149468;28;20669;-87
2021/08/13 08:19:18;;;;;;;5.47;2.53;;;25.10;99.90;;;;;;4165844;28;20223;-87
2021/08/13 08:21:19;;;;;;;5.97;2.50;;;25.30;99.90;;;;;;4149441;28;20173;-87
2021/08/13 08:23:20;;;;;;;4.80;2.40;;;25.20;99.90;;;;;;4149390;28;20239;-88
2021/08/13 08:25:21;;;;;;;4.00;2.03;;;25.30;99.90;;;;;;4149218;28;20200;-87
2021/08/13 08:27:21;;;;;;;4.97;2.80;;;25.50;99.90;;;;;;4149294;28;20176;-87
2021/08/13 08:29:23;;;;;;;5.22;2.30;;;25.80;99.90;;;;;;4165371;28;20176;-87
2021/08/13 08:31:23;;;;;;;7.50;2.40;;;26.20;99.90;;;;;;4149024;28;20287;-87
2021/08/13 08:33:24;;;;;;;3.72;2.65;;;26.60;99.90;;;;;;4149356;28;20720;-87
2021/08/13 08:35:25;;;;;;;9.30;2.78;;;27.30;99.90;;;;;;4149417;28;20212;-87
2021/08/13 08:37:25;;;;;;;4.85;2.38;;;27.50;99.90;;;;;;4148964;28;20761;-87
2021/08/13 08:39:26;;;;;;;4.32;2.40;;;27.70;99.90;;;;;;4149404;28;20219;-87
2021/08/13 08:41:28;;;;;;;5.50;2.70;;;27.60;99.90;;;;;;4165506;28;20168;-92
2021/08/13 08:43:29;;;;;;;5.15;2.35;;;27.60;99.90;;;;;;4165341;28;20207;-87
2021/08/13 08:45:32;;;;;;;5.05;2.55;;;28.20;99.90;;;;;;4149613;28;20193;-91
2021/08/13 08:47:32;;;;;;;8.40;2.75;;;28.00;99.90;;;;;;4150051;28;20172;-91
2021/08/13 08:49:36;;;;;;;6.47;2.72;;;28.20;99.90;;;;;;4165538;28;20261;-87
2021/08/13 08:51:39;;;;;;;4.32;2.53;;;27.50;99.90;;;;;;4148635;28;20648;-87
2021/08/13 08:53:40;;;;;;;5.20;2.63;;;27.20;99.90;;;;;;4164660;28;20172;-87
2021/08/13 08:55:41;;;;;;;4.72;2.55;;;27.40;99.90;;;;;;4148840;28;20224;-87
2021/08/13 08:57:43;;;;;;;5.90;2.55;;;28.00;99.90;;;;;;4148665;28;20157;-87
2021/08/13 08:59:44;;;;;;;5.25;2.75;;;28.10;99.90;;;;;;4148815;28;20188;-92
2021/08/13 09:01:45;;;;;;;5.20;3.17;;;28.50;99.90;;;;;;4148668;28;20169;-87
2021/08/13 09:03:46;;;;;;;5.28;2.55;;;29.20;99.90;;;;;;4148944;28;20173;-87
2021/08/13 09:05:48;;;;;;;7.32;2.65;;;29.50;99.90;;;;;;4164920;28;20294;-87
2021/08/13 09:07:48;;;;;;;6.45;2.90;;;29.50;99.90;;;;;;4148493;28;20176;-86
2021/08/13 09:09:49;;;;;;;6.45;3.15;;;29.20;99.90;;;;;;4148520;28;20720;-85
2021/08/13 09:11:50;;;;;;;7.25;3.25;;;29.40;99.90;;;;;;4164841;28;20169;-85
2021/08/13 09:13:59;;;;;;;6.07;2.90;;;29.10;99.90;;;;;;4148288;28;20181;-85
2021/08/13 09:16:14;;;;;;;6.35;2.70;;;29.20;99.90;;;;;;4148390;28;20730;-85
2021/08/13 09:18:22;;;;;;;4.47;2.58;;;29.40;99.90;;;;;;4148670;28;20507;-89
2021/08/13 09:20:39;;;;;;;5.95;3.17;;;29.40;99.90;;;;;;4148229;28;20530;-85
2021/08/13 09:22:43;;;;;;;5.85;2.78;;;28.80;99.90;;;;;;4148334;28;20696;-85
2021/08/13 09:24:50;;;;;;;8.25;2.97;;;28.10;99.90;;;;;;4148390;28;20204;-85
2021/08/13 09:26:50;;;;;;;4.47;2.60;;;28.10;99.90;;;;;;4164763;28;20191;-84
2021/08/13 09:29:02;;;;;;;5.88;2.80;;;28.30;99.90;;;;;;4132834;28;20203;-85
2021/08/13 09:31:30;;;;;;;6.63;2.60;;;27.70;99.90;;;;;;4133852;28;20181;-85
2021/08/13 09:33:31;;;;;;;7.53;2.67;;;27.30;99.90;;;;;;4132117;28;20180;-85
2021/08/13 09:35:36;;;;;;;7.75;3.25;;;27.40;99.90;;;;;;4148017;28;20243;-85
2021/08/13 09:37:38;;;;;;;5.15;2.60;;;27.50;99.90;;;;;;4148159;28;20172;-85
2021/08/13 09:39:40;;;;;;;6.85;3.05;;;27.90;99.90;;;;;;4148174;28;20177;-85
2021/08/13 09:41:51;;;;;;;7.53;2.72;;;28.60;99.90;;;;;;4164356;28;20571;-86
2021/08/13 09:44:00;;;;;;;4.95;2.78;;;29.30;99.90;;;;;;4148067;28;20180;-85
2021/08/13 09:46:06;;;;;;;7.30;2.83;;;29.40;99.90;;;;;;4164355;28;20682;-85
2021/08/13 09:48:21;;;;;;;5.78;3.00;;;29.30;99.90;;;;;;4147923;28;20185;-85
2021/08/13 09:50:39;;;;;;;5.80;3.08;;;29.50;99.90;;;;;;4148021;28;20263;-85
2021/08/13 09:52:41;;;;;;;8.00;3.20;;;29.70;99.90;;;;;;4172055;22;20216;-88
2021/08/13 09:54:45;;;;;;;6.97;2.95;;;29.30;99.90;;;;;;4147998;28;20669;-89
2021/08/13 09:56:45;;;;;;;5.55;2.85;;;28.90;99.90;;;;;;4148723;28;20232;-88
2021/08/13 09:58:47;;;;;;;6.95;2.95;;;29.00;99.90;;;;;;4164961;28;20164;-89
2021/08/13 10:00:50;;;;;;;8.55;2.97;;;28.90;99.90;;;;;;4148600;28;20180;-94
2021/08/13 10:03:04;;;;;;;4.97;2.75;;;28.80;99.90;;;;;;4148610;28;20179;-88
2021/08/13 10:05:25;;;;;;;8.45;2.90;;;29.30;99.90;;;;;;4151572;28;20176;-89
2021/08/13 10:07:44;;;;;;;8.15;2.97;;;30.00;99.90;;;;;;4151743;28;20169;-88
2021/08/13 10:09:48;;;;;;;9.10;3.20;;;30.10;99.90;;;;;;4151547;28;20172;-94
2021/08/13 10:12:00;;;;;;;6.35;3.08;;;30.40;99.90;;;;;;4135498;28;20174;-87
2021/08/13 10:14:03;;;;;;;5.90;3.40;;;30.10;99.90;;;;;;4152231;28;20208;-89
2021/08/13 10:16:04;;;;;;;6.60;3.10;;;29.70;99.90;;;;;;4151389;28;20220;-88
2021/08/13 10:18:09;;;;;;;6.03;3.13;;;29.50;99.90;;;;;;4151512;28;20177;-87
2021/08/13 10:20:10;;;;;;;5.43;2.78;;;29.20;99.90;;;;;;4151503;28;20255;-89
2021/08/13 10:22:12;;;;;;;5.88;2.80;;;28.50;99.90;;;;;;4151927;28;20227;-88
2021/08/13 10:24:13;;;;;;;6.70;2.92;;;28.50;99.90;;;;;;4135102;28;20181;-87
2021/08/13 10:26:16;;;;;;;9.18;3.60;;;28.00;99.90;;;;;;4151071;28;20214;-88
2021/08/13 10:28:20;;;;;;;7.15;3.30;;;27.70;99.90;;;;;;4135106;28;20201;-88
2021/08/13 10:30:26;;;;;;;7.70;3.08;;;27.60;99.90;;;;;;4151456;28;20180;-91
2021/08/13 10:32:29;;;;;;;6.88;3.22;;;27.70;99.90;;;;;;4151280;28;20176;-94
2021/08/13 10:34:30;;;;;;;7.57;3.17;;;27.70;99.90;;;;;;4151423;28;20261;-88